sensor_id;sensor_type;location;lat;lon;timestamp;temperature;humidity
2783;DHT22;1399;47.072;15.452;2022-12-16T00:01:11;7.90;52.60
2783;DHT22;1399;47.072;15.452;2022-12-16T00:03:38;7.90;52.60
2783;DHT22;1399;47.072;15.452;2022-12-16T00:06:06;7.90;52.60
2783;DHT22;1399;47.072;15.452;2022-12-16T00:08:35;7.90;52.70
2783;DHT22;1399;47.072;15.452;2022-12-16T00:11:01;7.90;52.60
2783;DHT22;1399;47.072;15.452;2022-12-16T00:13:29;7.90;52.60
2783;DHT22;1399;47.072;15.452;2022-12-16T00:15:55;7.90;52.60
2783;DHT22;1399;47.072;15.452;2022-12-16T00:18:21;7.90;52.50
2783;DHT22;1399;47.072;15.452;2022-12-16T00:20:49;7.90;52.40
2783;DHT22;1399;47.072;15.452;2022-12-16T00:23:15;7.90;52.40
2783;DHT22;1399;47.072;15.452;2022-12-16T00:25:42;7.90;52.40
2783;DHT22;1399;47.072;15.452;2022-12-16T00:28:09;7.90;52.40
2783;DHT22;1399;47.072;15.452;2022-12-16T00:30:35;7.90;52.40
2783;DHT22;1399;47.072;15.452;2022-12-16T00:33:00;7.90;52.40
2783;DHT22;1399;47.072;15.452;2022-12-16T00:35:26;7.90;52.50
2783;DHT22;1399;47.072;15.452;2022-12-16T00:37:52;7.90;52.40
2783;DHT22;1399;47.072;15.452;2022-12-16T00:40:17;7.90;52.40
2783;DHT22;1399;47.072;15.452;2022-12-16T00:42:44;7.90;52.50
2783;DHT22;1399;47.072;15.452;2022-12-16T00:45:09;7.90;52.40
2783;DHT22;1399;47.072;15.452;2022-12-16T00:47:36;7.90;52.60
2783;DHT22;1399;47.072;15.452;2022-12-16T00:50:02;7.90;52.60
2783;DHT22;1399;47.072;15.452;2022-12-16T00:52:28;7.90;52.60
2783;DHT22;1399;47.072;15.452;2022-12-16T00:54:53;7.90;52.70
2783;DHT22;1399;47.072;15.452;2022-12-16T00:57:19;7.90;52.70
2783;DHT22;1399;47.072;15.452;2022-12-16T00:59:45;7.90;52.80
2783;DHT22;1399;47.072;15.452;2022-12-16T01:02:10;7.90;52.90
2783;DHT22;1399;47.072;15.452;2022-12-16T01:04:36;7.90;52.90
2783;DHT22;1399;47.072;15.452;2022-12-16T01:07:02;7.90;53.00
2783;DHT22;1399;47.072;15.452;2022-12-16T01:09:27;7.90;53.00
2783;DHT22;1399;47.072;15.452;2022-12-16T01:11:53;7.90;53.00
2783;DHT22;1399;47.072;15.452;2022-12-16T01:14:19;7.90;53.00
2783;DHT22;1399;47.072;15.452;2022-12-16T01:16:45;7.90;53.00
2783;DHT22;1399;47.072;15.452;2022-12-16T01:19:11;7.90;53.00
2783;DHT22;1399;47.072;15.452;2022-12-16T01:21:37;7.90;53.00
2783;DHT22;1399;47.072;15.452;2022-12-16T01:24:03;7.90;53.00
2783;DHT22;1399;47.072;15.452;2022-12-16T01:26:29;7.90;53.00
2783;DHT22;1399;47.072;15.452;2022-12-16T01:28:56;7.90;53.00
2783;DHT22;1399;47.072;15.452;2022-12-16T01:31:23;7.90;53.10
2783;DHT22;1399;47.072;15.452;2022-12-16T01:33:49;7.90;53.10
2783;DHT22;1399;47.072;15.452;2022-12-16T01:36:16;7.90;53.20
2783;DHT22;1399;47.072;15.452;2022-12-16T01:38:43;7.90;53.20
2783;DHT22;1399;47.072;15.452;2022-12-16T01:41:10;7.90;53.30
2783;DHT22;1399;47.072;15.452;2022-12-16T01:43:39;7.90;53.40
2783;DHT22;1399;47.072;15.452;2022-12-16T01:49:01;7.90;53.40
2783;DHT22;1399;47.072;15.452;2022-12-16T01:51:42;7.90;53.40
2783;DHT22;1399;47.072;15.452;2022-12-16T01:54:13;7.90;53.40
2783;DHT22;1399;47.072;15.452;2022-12-16T01:56:43;7.90;53.50
2783;DHT22;1399;47.072;15.452;2022-12-16T01:59:10;7.90;53.50
2783;DHT22;1399;47.072;15.452;2022-12-16T02:01:38;7.90;53.60
2783;DHT22;1399;47.072;15.452;2022-12-16T02:04:03;7.90;53.60
2783;DHT22;1399;47.072;15.452;2022-12-16T02:06:30;7.90;53.60
2783;DHT22;1399;47.072;15.452;2022-12-16T02:08:57;7.90;53.70
2783;DHT22;1399;47.072;15.452;2022-12-16T02:25:20;7.90;54.00
2783;DHT22;1399;47.072;15.452;2022-12-16T02:28:02;7.90;54.00
2783;DHT22;1399;47.072;15.452;2022-12-16T02:30:46;7.90;54.00
2783;DHT22;1399;47.072;15.452;2022-12-16T02:33:49;7.90;54.00
2783;DHT22;1399;47.072;15.452;2022-12-16T02:36:30;7.90;54.10
2783;DHT22;1399;47.072;15.452;2022-12-16T02:44:05;7.90;54.00
2783;DHT22;1399;47.072;15.452;2022-12-16T02:46:32;7.90;54.00
2783;DHT22;1399;47.072;15.452;2022-12-16T02:51:59;7.90;54.00
2783;DHT22;1399;47.072;15.452;2022-12-16T02:54:25;7.90;54.10
2783;DHT22;1399;47.072;15.452;2022-12-16T03:02:09;7.90;53.80
2783;DHT22;1399;47.072;15.452;2022-12-16T03:04:47;7.90;53.80
2783;DHT22;1399;47.072;15.452;2022-12-16T03:07:17;7.90;53.80
2783;DHT22;1399;47.072;15.452;2022-12-16T03:09:47;7.90;53.80
2783;DHT22;1399;47.072;15.452;2022-12-16T03:12:15;7.90;53.90
2783;DHT22;1399;47.072;15.452;2022-12-16T03:14:45;7.90;54.00
2783;DHT22;1399;47.072;15.452;2022-12-16T03:17:13;7.90;54.10
2783;DHT22;1399;47.072;15.452;2022-12-16T03:19:44;7.90;54.20
2783;DHT22;1399;47.072;15.452;2022-12-16T03:22:17;7.90;54.30
2783;DHT22;1399;47.072;15.452;2022-12-16T03:24:45;7.90;54.30
2783;DHT22;1399;47.072;15.452;2022-12-16T03:27:25;7.90;54.40
2783;DHT22;1399;47.072;15.452;2022-12-16T03:29:58;7.90;54.60
2783;DHT22;1399;47.072;15.452;2022-12-16T03:32:36;7.90;54.60
2783;DHT22;1399;47.072;15.452;2022-12-16T03:35:16;7.90;54.60
2783;DHT22;1399;47.072;15.452;2022-12-16T03:37:45;7.90;54.70
2783;DHT22;1399;47.072;15.452;2022-12-16T03:40:13;7.90;54.80
2783;DHT22;1399;47.072;15.452;2022-12-16T03:42:40;7.90;54.80
2783;DHT22;1399;47.072;15.452;2022-12-16T03:45:10;7.90;54.70
2783;DHT22;1399;47.072;15.452;2022-12-16T03:47:37;7.90;54.70
2783;DHT22;1399;47.072;15.452;2022-12-16T03:50:03;7.90;54.60
2783;DHT22;1399;47.072;15.452;2022-12-16T03:52:28;7.90;54.60
2783;DHT22;1399;47.072;15.452;2022-12-16T03:54:54;7.90;54.70
2783;DHT22;1399;47.072;15.452;2022-12-16T03:57:20;7.90;54.80
2783;DHT22;1399;47.072;15.452;2022-12-16T03:59:45;7.90;54.70
2783;DHT22;1399;47.072;15.452;2022-12-16T04:02:11;7.90;54.80
2783;DHT22;1399;47.072;15.452;2022-12-16T04:04:37;7.90;55.00
2783;DHT22;1399;47.072;15.452;2022-12-16T04:07:03;7.90;54.90
2783;DHT22;1399;47.072;15.452;2022-12-16T04:09:49;7.90;54.80
2783;DHT22;1399;47.072;15.452;2022-12-16T04:12:15;7.90;54.80
2783;DHT22;1399;47.072;15.452;2022-12-16T04:14:59;7.90;54.70
2783;DHT22;1399;47.072;15.452;2022-12-16T04:17:44;7.90;54.70
2783;DHT22;1399;47.072;15.452;2022-12-16T04:20:31;7.90;54.60
2783;DHT22;1399;47.072;15.452;2022-12-16T04:23:15;7.90;54.60
2783;DHT22;1399;47.072;15.452;2022-12-16T04:26:00;7.90;54.60
2783;DHT22;1399;47.072;15.452;2022-12-16T04:28:26;7.90;54.60
2783;DHT22;1399;47.072;15.452;2022-12-16T04:30:51;7.90;54.60
2783;DHT22;1399;47.072;15.452;2022-12-16T04:33:17;7.90;54.70
2783;DHT22;1399;47.072;15.452;2022-12-16T04:36:02;7.90;54.60
2783;DHT22;1399;47.072;15.452;2022-12-16T04:38:46;7.90;54.70
2783;DHT22;1399;47.072;15.452;2022-12-16T04:41:30;7.90;54.60
2783;DHT22;1399;47.072;15.452;2022-12-16T04:44:14;7.90;54.60
2783;DHT22;1399;47.072;15.452;2022-12-16T04:46:58;7.90;54.60
2783;DHT22;1399;47.072;15.452;2022-12-16T04:49:42;7.90;54.60
2783;DHT22;1399;47.072;15.452;2022-12-16T04:52:26;7.90;54.60
2783;DHT22;1399;47.072;15.452;2022-12-16T04:55:10;7.90;54.70
2783;DHT22;1399;47.072;15.452;2022-12-16T04:57:59;7.90;54.70
2783;DHT22;1399;47.072;15.452;2022-12-16T05:00:46;7.90;54.70
2783;DHT22;1399;47.072;15.452;2022-12-16T05:03:31;7.90;54.70
2783;DHT22;1399;47.072;15.452;2022-12-16T05:06:16;7.90;54.60
2783;DHT22;1399;47.072;15.452;2022-12-16T05:09:00;7.90;54.50
2783;DHT22;1399;47.072;15.452;2022-12-16T05:11:45;7.90;54.60
2783;DHT22;1399;47.072;15.452;2022-12-16T05:14:29;7.90;54.60
2783;DHT22;1399;47.072;15.452;2022-12-16T05:17:14;7.90;54.60
2783;DHT22;1399;47.072;15.452;2022-12-16T05:19:59;7.90;54.50
2783;DHT22;1399;47.072;15.452;2022-12-16T05:22:44;7.90;54.60
2783;DHT22;1399;47.072;15.452;2022-12-16T05:25:28;7.80;54.50
2783;DHT22;1399;47.072;15.452;2022-12-16T05:28:12;7.80;54.70
2783;DHT22;1399;47.072;15.452;2022-12-16T05:30:57;7.80;54.80
2783;DHT22;1399;47.072;15.452;2022-12-16T05:33:41;7.80;54.80
2783;DHT22;1399;47.072;15.452;2022-12-16T05:36:25;7.80;54.90
2783;DHT22;1399;47.072;15.452;2022-12-16T05:39:09;7.80;54.90
2783;DHT22;1399;47.072;15.452;2022-12-16T05:41:54;7.80;55.00
2783;DHT22;1399;47.072;15.452;2022-12-16T05:44:39;7.80;55.10
2783;DHT22;1399;47.072;15.452;2022-12-16T05:47:24;7.80;55.10
2783;DHT22;1399;47.072;15.452;2022-12-16T05:50:09;7.80;55.20
2783;DHT22;1399;47.072;15.452;2022-12-16T05:52:55;7.70;55.10
2783;DHT22;1399;47.072;15.452;2022-12-16T05:55:53;7.70;55.20
2783;DHT22;1399;47.072;15.452;2022-12-16T05:58:38;7.80;55.30
2783;DHT22;1399;47.072;15.452;2022-12-16T06:01:22;7.70;55.30
2783;DHT22;1399;47.072;15.452;2022-12-16T06:04:07;7.70;55.40
2783;DHT22;1399;47.072;15.452;2022-12-16T06:06:51;7.70;55.40
2783;DHT22;1399;47.072;15.452;2022-12-16T06:09:35;7.70;55.30
2783;DHT22;1399;47.072;15.452;2022-12-16T06:12:19;7.70;55.30
2783;DHT22;1399;47.072;15.452;2022-12-16T06:15:04;7.70;55.40
2783;DHT22;1399;47.072;15.452;2022-12-16T06:17:49;7.70;55.50
2783;DHT22;1399;47.072;15.452;2022-12-16T06:20:35;7.70;55.40
2783;DHT22;1399;47.072;15.452;2022-12-16T06:23:19;7.70;55.40
2783;DHT22;1399;47.072;15.452;2022-12-16T06:26:04;7.70;55.40
2783;DHT22;1399;47.072;15.452;2022-12-16T06:28:48;7.70;55.40
2783;DHT22;1399;47.072;15.452;2022-12-16T06:31:32;7.70;55.40
2783;DHT22;1399;47.072;15.452;2022-12-16T06:34:16;7.70;55.40
2783;DHT22;1399;47.072;15.452;2022-12-16T06:37:00;7.70;55.30
2783;DHT22;1399;47.072;15.452;2022-12-16T06:39:44;7.70;55.30
2783;DHT22;1399;47.072;15.452;2022-12-16T06:42:29;7.70;55.30
2783;DHT22;1399;47.072;15.452;2022-12-16T06:45:13;7.70;55.30
2783;DHT22;1399;47.072;15.452;2022-12-16T06:47:57;7.70;55.30
2783;DHT22;1399;47.072;15.452;2022-12-16T06:50:41;7.70;55.30
2783;DHT22;1399;47.072;15.452;2022-12-16T06:53:25;7.70;55.30
2783;DHT22;1399;47.072;15.452;2022-12-16T06:56:10;7.70;55.40
2783;DHT22;1399;47.072;15.452;2022-12-16T06:58:54;7.70;55.30
2783;DHT22;1399;47.072;15.452;2022-12-16T07:01:38;7.70;55.30
2783;DHT22;1399;47.072;15.452;2022-12-16T07:04:22;7.70;55.30
2783;DHT22;1399;47.072;15.452;2022-12-16T07:07:06;7.80;55.40
2783;DHT22;1399;47.072;15.452;2022-12-16T07:09:50;7.80;55.30
2783;DHT22;1399;47.072;15.452;2022-12-16T07:12:34;7.80;55.30
2783;DHT22;1399;47.072;15.452;2022-12-16T07:15:19;7.80;55.30
2783;DHT22;1399;47.072;15.452;2022-12-16T07:18:03;7.80;55.20
2783;DHT22;1399;47.072;15.452;2022-12-16T07:20:47;7.80;55.20
2783;DHT22;1399;47.072;15.452;2022-12-16T07:23:31;7.80;55.30
2783;DHT22;1399;47.072;15.452;2022-12-16T07:26:15;7.80;55.40
2783;DHT22;1399;47.072;15.452;2022-12-16T07:29:00;7.90;55.40
2783;DHT22;1399;47.072;15.452;2022-12-16T07:31:44;7.90;55.30
2783;DHT22;1399;47.072;15.452;2022-12-16T07:34:28;7.90;55.40
2783;DHT22;1399;47.072;15.452;2022-12-16T07:37:12;7.90;55.40
2783;DHT22;1399;47.072;15.452;2022-12-16T07:39:56;7.90;55.30
2783;DHT22;1399;47.072;15.452;2022-12-16T07:42:41;7.90;55.30
2783;DHT22;1399;47.072;15.452;2022-12-16T07:45:25;7.90;55.30
2783;DHT22;1399;47.072;15.452;2022-12-16T07:48:10;7.90;55.20
2783;DHT22;1399;47.072;15.452;2022-12-16T07:50:54;8.00;55.20
2783;DHT22;1399;47.072;15.452;2022-12-16T07:53:38;8.00;55.20
2783;DHT22;1399;47.072;15.452;2022-12-16T07:56:22;8.00;55.20
2783;DHT22;1399;47.072;15.452;2022-12-16T07:59:06;8.00;55.10
2783;DHT22;1399;47.072;15.452;2022-12-16T08:01:50;8.00;55.10
2783;DHT22;1399;47.072;15.452;2022-12-16T08:04:34;8.00;55.10
2783;DHT22;1399;47.072;15.452;2022-12-16T08:07:19;8.10;55.10
2783;DHT22;1399;47.072;15.452;2022-12-16T08:10:03;8.10;55.10
2783;DHT22;1399;47.072;15.452;2022-12-16T08:12:47;8.20;55.20
2783;DHT22;1399;47.072;15.452;2022-12-16T08:15:31;8.20;55.20
2783;DHT22;1399;47.072;15.452;2022-12-16T08:18:15;8.30;55.10
2783;DHT22;1399;47.072;15.452;2022-12-16T08:20:59;8.30;55.10
2783;DHT22;1399;47.072;15.452;2022-12-16T08:23:43;8.40;55.00
2783;DHT22;1399;47.072;15.452;2022-12-16T08:26:41;8.40;55.00
2783;DHT22;1399;47.072;15.452;2022-12-16T08:29:25;8.40;54.90
2783;DHT22;1399;47.072;15.452;2022-12-16T08:32:09;8.40;55.00
2783;DHT22;1399;47.072;15.452;2022-12-16T08:34:54;8.40;54.90
2783;DHT22;1399;47.072;15.452;2022-12-16T08:37:38;8.40;54.70
2783;DHT22;1399;47.072;15.452;2022-12-16T08:40:22;8.40;54.60
2783;DHT22;1399;47.072;15.452;2022-12-16T08:43:06;8.40;54.50
2783;DHT22;1399;47.072;15.452;2022-12-16T08:45:52;8.40;54.50
2783;DHT22;1399;47.072;15.452;2022-12-16T08:48:37;8.50;54.60
2783;DHT22;1399;47.072;15.452;2022-12-16T08:51:21;8.50;54.60
2783;DHT22;1399;47.072;15.452;2022-12-16T08:54:13;8.50;54.70
2783;DHT22;1399;47.072;15.452;2022-12-16T08:56:57;8.50;54.70
2783;DHT22;1399;47.072;15.452;2022-12-16T08:59:42;8.50;54.70
2783;DHT22;1399;47.072;15.452;2022-12-16T09:02:26;8.60;54.70
2783;DHT22;1399;47.072;15.452;2022-12-16T09:05:11;8.50;54.70
2783;DHT22;1399;47.072;15.452;2022-12-16T09:08:02;8.60;54.80
2783;DHT22;1399;47.072;15.452;2022-12-16T09:10:47;8.60;54.80
2783;DHT22;1399;47.072;15.452;2022-12-16T09:13:31;8.60;54.80
2783;DHT22;1399;47.072;15.452;2022-12-16T09:16:15;8.60;54.70
2783;DHT22;1399;47.072;15.452;2022-12-16T09:18:59;8.60;54.90
2783;DHT22;1399;47.072;15.452;2022-12-16T09:21:43;8.70;54.90
2783;DHT22;1399;47.072;15.452;2022-12-16T09:24:27;8.70;54.90
2783;DHT22;1399;47.072;15.452;2022-12-16T09:27:11;8.70;54.80
2783;DHT22;1399;47.072;15.452;2022-12-16T09:29:57;8.70;54.80
2783;DHT22;1399;47.072;15.452;2022-12-16T09:32:42;8.80;54.80
2783;DHT22;1399;47.072;15.452;2022-12-16T09:35:27;8.80;54.70
2783;DHT22;1399;47.072;15.452;2022-12-16T09:38:11;8.80;54.60
2783;DHT22;1399;47.072;15.452;2022-12-16T09:40:55;8.80;54.50
2783;DHT22;1399;47.072;15.452;2022-12-16T09:44:00;8.80;54.40
2783;DHT22;1399;47.072;15.452;2022-12-16T09:52:26;8.90;54.20
2783;DHT22;1399;47.072;15.452;2022-12-16T09:58:08;8.90;54.20
2783;DHT22;1399;47.072;15.452;2022-12-16T10:00:53;8.90;54.20
2783;DHT22;1399;47.072;15.452;2022-12-16T10:03:38;8.90;54.10
2783;DHT22;1399;47.072;15.452;2022-12-16T10:06:46;8.90;54.20
2783;DHT22;1399;47.072;15.452;2022-12-16T10:13:02;9.00;54.50
2783;DHT22;1399;47.072;15.452;2022-12-16T10:24:44;9.10;54.20
2783;DHT22;1399;47.072;15.452;2022-12-16T10:27:45;9.10;54.00
2783;DHT22;1399;47.072;15.452;2022-12-16T10:30:31;9.10;53.90
2783;DHT22;1399;47.072;15.452;2022-12-16T10:33:17;9.10;53.90
2783;DHT22;1399;47.072;15.452;2022-12-16T10:36:03;9.10;53.90
2783;DHT22;1399;47.072;15.452;2022-12-16T10:38:51;9.10;54.00
2783;DHT22;1399;47.072;15.452;2022-12-16T10:41:39;9.00;54.00
2783;DHT22;1399;47.072;15.452;2022-12-16T10:44:50;9.10;54.10
2783;DHT22;1399;47.072;15.452;2022-12-16T10:47:36;9.00;54.00
2783;DHT22;1399;47.072;15.452;2022-12-16T10:50:20;9.00;54.00
2783;DHT22;1399;47.072;15.452;2022-12-16T10:53:16;9.00;54.10
2783;DHT22;1399;47.072;15.452;2022-12-16T10:59:06;9.00;54.20
2783;DHT22;1399;47.072;15.452;2022-12-16T11:01:59;9.00;54.40
2783;DHT22;1399;47.072;15.452;2022-12-16T11:04:44;9.00;54.50
2783;DHT22;1399;47.072;15.452;2022-12-16T11:07:51;9.00;54.50
2783;DHT22;1399;47.072;15.452;2022-12-16T11:10:41;9.00;54.40
2783;DHT22;1399;47.072;15.452;2022-12-16T11:13:31;9.10;54.50
2783;DHT22;1399;47.072;15.452;2022-12-16T11:16:20;9.10;54.40
2783;DHT22;1399;47.072;15.452;2022-12-16T11:22:19;9.10;54.40
2783;DHT22;1399;47.072;15.452;2022-12-16T11:25:20;9.10;54.40
2783;DHT22;1399;47.072;15.452;2022-12-16T11:28:12;9.20;54.50
2783;DHT22;1399;47.072;15.452;2022-12-16T11:31:00;9.20;54.50
2783;DHT22;1399;47.072;15.452;2022-12-16T11:33:46;9.20;54.60
2783;DHT22;1399;47.072;15.452;2022-12-16T11:36:32;9.20;54.50
2783;DHT22;1399;47.072;15.452;2022-12-16T11:39:21;9.30;54.50
2783;DHT22;1399;47.072;15.452;2022-12-16T11:42:31;9.30;54.60
2783;DHT22;1399;47.072;15.452;2022-12-16T11:45:18;9.30;54.60
2783;DHT22;1399;47.072;15.452;2022-12-16T11:48:21;9.30;54.60
2783;DHT22;1399;47.072;15.452;2022-12-16T11:51:13;9.30;54.60
2783;DHT22;1399;47.072;15.452;2022-12-16T11:54:09;9.40;54.80
2783;DHT22;1399;47.072;15.452;2022-12-16T11:56:57;9.30;54.80
2783;DHT22;1399;47.072;15.452;2022-12-16T11:59:45;9.30;55.00
2783;DHT22;1399;47.072;15.452;2022-12-16T12:05:32;9.40;55.20
2783;DHT22;1399;47.072;15.452;2022-12-16T12:11:51;9.40;55.20
2783;DHT22;1399;47.072;15.452;2022-12-16T12:14:50;9.40;55.20
2783;DHT22;1399;47.072;15.452;2022-12-16T12:23:51;9.40;55.50
2783;DHT22;1399;47.072;15.452;2022-12-16T12:26:43;9.40;55.60
2783;DHT22;1399;47.072;15.452;2022-12-16T12:29:41;9.40;55.60
2783;DHT22;1399;47.072;15.452;2022-12-16T12:38:40;9.40;55.70
2783;DHT22;1399;47.072;15.452;2022-12-16T12:47:29;9.40;55.80
2783;DHT22;1399;47.072;15.452;2022-12-16T12:50:30;9.40;55.90
2783;DHT22;1399;47.072;15.452;2022-12-16T12:53:41;9.40;55.90
2783;DHT22;1399;47.072;15.452;2022-12-16T12:56:47;9.40;55.90
2783;DHT22;1399;47.072;15.452;2022-12-16T12:59:44;9.40;56.00
2783;DHT22;1399;47.072;15.452;2022-12-16T13:02:47;9.40;56.00
2783;DHT22;1399;47.072;15.452;2022-12-16T13:05:34;9.40;56.00
2783;DHT22;1399;47.072;15.452;2022-12-16T13:11:21;9.40;56.00
2783;DHT22;1399;47.072;15.452;2022-12-16T13:17:28;9.40;56.20
2783;DHT22;1399;47.072;15.452;2022-12-16T13:23:44;9.40;56.20
2783;DHT22;1399;47.072;15.452;2022-12-16T13:26:32;9.30;56.20
2783;DHT22;1399;47.072;15.452;2022-12-16T13:29:42;9.30;56.20
2783;DHT22;1399;47.072;15.452;2022-12-16T13:32:53;9.30;56.30
2783;DHT22;1399;47.072;15.452;2022-12-16T13:35:54;9.30;56.30
2783;DHT22;1399;47.072;15.452;2022-12-16T13:38:47;9.30;56.40
2783;DHT22;1399;47.072;15.452;2022-12-16T13:53:29;9.20;56.60
2783;DHT22;1399;47.072;15.452;2022-12-16T13:56:19;9.20;56.60
2783;DHT22;1399;47.072;15.452;2022-12-16T13:59:17;9.20;56.60
2783;DHT22;1399;47.072;15.452;2022-12-16T14:02:18;9.20;56.60
2783;DHT22;1399;47.072;15.452;2022-12-16T14:05:15;9.20;56.60
2783;DHT22;1399;47.072;15.452;2022-12-16T14:08:01;9.20;56.70
2783;DHT22;1399;47.072;15.452;2022-12-16T14:10:55;9.20;56.70
2783;DHT22;1399;47.072;15.452;2022-12-16T14:25:32;9.10;56.90
2783;DHT22;1399;47.072;15.452;2022-12-16T14:31:23;9.10;57.00
2783;DHT22;1399;47.072;15.452;2022-12-16T14:34:24;9.10;57.10
2783;DHT22;1399;47.072;15.452;2022-12-16T14:37:55;9.10;57.20
2783;DHT22;1399;47.072;15.452;2022-12-16T14:40:28;9.10;57.10
2783;DHT22;1399;47.072;15.452;2022-12-16T14:43:15;9.10;57.10
2783;DHT22;1399;47.072;15.452;2022-12-16T14:46:01;9.10;57.80
2783;DHT22;1399;47.072;15.452;2022-12-16T14:48:47;9.10;57.10
2783;DHT22;1399;47.072;15.452;2022-12-16T14:51:37;9.10;57.10
2783;DHT22;1399;47.072;15.452;2022-12-16T14:54:35;9.10;57.20
2783;DHT22;1399;47.072;15.452;2022-12-16T14:57:27;9.10;57.30
2783;DHT22;1399;47.072;15.452;2022-12-16T15:00:16;9.10;57.30
2783;DHT22;1399;47.072;15.452;2022-12-16T15:05:54;9.10;57.50
2783;DHT22;1399;47.072;15.452;2022-12-16T15:08:52;9.10;57.50
2783;DHT22;1399;47.072;15.452;2022-12-16T15:11:38;9.10;57.50
2783;DHT22;1399;47.072;15.452;2022-12-16T15:14:27;9.10;57.50
2783;DHT22;1399;47.072;15.452;2022-12-16T15:17:21;9.10;57.50
2783;DHT22;1399;47.072;15.452;2022-12-16T15:20:21;9.10;57.50
2783;DHT22;1399;47.072;15.452;2022-12-16T15:23:25;9.00;58.00
2783;DHT22;1399;47.072;15.452;2022-12-16T15:26:23;9.00;57.50
2783;DHT22;1399;47.072;15.452;2022-12-16T15:29:36;9.00;57.50
2783;DHT22;1399;47.072;15.452;2022-12-16T15:41:04;9.00;57.80
2783;DHT22;1399;47.072;15.452;2022-12-16T15:43:48;9.00;57.90
2783;DHT22;1399;47.072;15.452;2022-12-16T15:46:33;9.00;58.00
2783;DHT22;1399;47.072;15.452;2022-12-16T15:52:37;9.00;58.10
2783;DHT22;1399;47.072;15.452;2022-12-16T15:58:23;9.00;58.10
2783;DHT22;1399;47.072;15.452;2022-12-16T16:01:09;9.00;58.10
2783;DHT22;1399;47.072;15.452;2022-12-16T16:03:56;9.00;58.30
2783;DHT22;1399;47.072;15.452;2022-12-16T16:06:44;9.00;58.20
2783;DHT22;1399;47.072;15.452;2022-12-16T16:09:29;9.00;58.20
2783;DHT22;1399;47.072;15.452;2022-12-16T16:12:16;9.00;58.30
2783;DHT22;1399;47.072;15.452;2022-12-16T16:15:02;9.00;58.30
2783;DHT22;1399;47.072;15.452;2022-12-16T16:17:50;9.00;58.50
2783;DHT22;1399;47.072;15.452;2022-12-16T16:20:36;9.00;58.60
2783;DHT22;1399;47.072;15.452;2022-12-16T16:23:20;9.00;58.50
2783;DHT22;1399;47.072;15.452;2022-12-16T16:26:04;9.00;58.50
2783;DHT22;1399;47.072;15.452;2022-12-16T16:28:56;9.00;58.50
2783;DHT22;1399;47.072;15.452;2022-12-16T16:31:40;9.00;58.50
2783;DHT22;1399;47.072;15.452;2022-12-16T16:34:25;9.00;58.50
2783;DHT22;1399;47.072;15.452;2022-12-16T16:37:15;9.00;58.60
2783;DHT22;1399;47.072;15.452;2022-12-16T16:40:00;9.00;58.60
2783;DHT22;1399;47.072;15.452;2022-12-16T16:42:45;9.00;58.50
2783;DHT22;1399;47.072;15.452;2022-12-16T16:45:29;9.00;58.50
2783;DHT22;1399;47.072;15.452;2022-12-16T16:48:16;9.00;58.50
2783;DHT22;1399;47.072;15.452;2022-12-16T16:51:01;9.00;58.40
2783;DHT22;1399;47.072;15.452;2022-12-16T16:53:46;9.00;58.50
2783;DHT22;1399;47.072;15.452;2022-12-16T16:56:33;9.00;58.50
2783;DHT22;1399;47.072;15.452;2022-12-16T16:59:17;9.00;58.50
2783;DHT22;1399;47.072;15.452;2022-12-16T17:02:18;9.00;58.50
2783;DHT22;1399;47.072;15.452;2022-12-16T17:05:03;9.00;58.40
2783;DHT22;1399;47.072;15.452;2022-12-16T17:07:47;9.00;58.40
2783;DHT22;1399;47.072;15.452;2022-12-16T17:10:31;9.00;58.30
2783;DHT22;1399;47.072;15.452;2022-12-16T17:13:15;9.00;58.30
2783;DHT22;1399;47.072;15.452;2022-12-16T17:16:00;9.00;58.40
2783;DHT22;1399;47.072;15.452;2022-12-16T17:18:44;8.90;58.40
2783;DHT22;1399;47.072;15.452;2022-12-16T17:21:28;9.00;58.50
2783;DHT22;1399;47.072;15.452;2022-12-16T17:24:12;9.00;58.50
2783;DHT22;1399;47.072;15.452;2022-12-16T17:26:56;8.90;58.40
2783;DHT22;1399;47.072;15.452;2022-12-16T17:29:40;9.00;58.60
2783;DHT22;1399;47.072;15.452;2022-12-16T17:32:24;8.90;58.40
2783;DHT22;1399;47.072;15.452;2022-12-16T17:35:10;8.90;58.40
2783;DHT22;1399;47.072;15.452;2022-12-16T17:37:54;8.90;58.40
2783;DHT22;1399;47.072;15.452;2022-12-16T17:40:38;9.00;58.50
2783;DHT22;1399;47.072;15.452;2022-12-16T17:43:22;9.00;58.50
2783;DHT22;1399;47.072;15.452;2022-12-16T17:46:09;9.00;58.50
2783;DHT22;1399;47.072;15.452;2022-12-16T17:48:55;8.90;58.40
2783;DHT22;1399;47.072;15.452;2022-12-16T17:51:40;8.90;58.40
2783;DHT22;1399;47.072;15.452;2022-12-16T17:54:24;9.00;58.40
2783;DHT22;1399;47.072;15.452;2022-12-16T17:57:09;8.90;58.40
2783;DHT22;1399;47.072;15.452;2022-12-16T17:59:53;8.90;58.40
2783;DHT22;1399;47.072;15.452;2022-12-16T18:02:38;8.90;58.40
2783;DHT22;1399;47.072;15.452;2022-12-16T18:05:22;9.00;58.50
2783;DHT22;1399;47.072;15.452;2022-12-16T18:08:06;8.90;58.50
2783;DHT22;1399;47.072;15.452;2022-12-16T18:10:55;8.90;58.40
2783;DHT22;1399;47.072;15.452;2022-12-16T18:13:40;8.90;58.40
2783;DHT22;1399;47.072;15.452;2022-12-16T18:16:24;8.90;58.40
2783;DHT22;1399;47.072;15.452;2022-12-16T18:19:13;8.90;58.40
2783;DHT22;1399;47.072;15.452;2022-12-16T18:21:57;8.90;58.40
2783;DHT22;1399;47.072;15.452;2022-12-16T18:24:42;8.90;58.40
2783;DHT22;1399;47.072;15.452;2022-12-16T18:27:26;8.90;58.40
2783;DHT22;1399;47.072;15.452;2022-12-16T18:30:12;8.90;58.40
2783;DHT22;1399;47.072;15.452;2022-12-16T18:32:56;8.90;58.40
2783;DHT22;1399;47.072;15.452;2022-12-16T18:35:40;8.90;58.50
2783;DHT22;1399;47.072;15.452;2022-12-16T18:38:24;8.90;58.50
2783;DHT22;1399;47.072;15.452;2022-12-16T18:41:19;8.90;58.50
2783;DHT22;1399;47.072;15.452;2022-12-16T18:44:05;8.90;58.60
2783;DHT22;1399;47.072;15.452;2022-12-16T18:46:49;8.90;58.70
2783;DHT22;1399;47.072;15.452;2022-12-16T18:49:34;8.90;58.70
2783;DHT22;1399;47.072;15.452;2022-12-16T18:52:18;8.90;58.60
2783;DHT22;1399;47.072;15.452;2022-12-16T18:55:03;8.90;58.60
2783;DHT22;1399;47.072;15.452;2022-12-16T18:57:51;8.90;58.60
2783;DHT22;1399;47.072;15.452;2022-12-16T19:00:36;8.90;58.60
2783;DHT22;1399;47.072;15.452;2022-12-16T19:03:20;8.90;58.60
2783;DHT22;1399;47.072;15.452;2022-12-16T19:06:15;8.90;58.60
2783;DHT22;1399;47.072;15.452;2022-12-16T19:09:00;8.90;58.60
2783;DHT22;1399;47.072;15.452;2022-12-16T19:11:44;8.90;58.60
2783;DHT22;1399;47.072;15.452;2022-12-16T19:14:29;8.90;58.60
2783;DHT22;1399;47.072;15.452;2022-12-16T19:17:13;8.90;58.60
2783;DHT22;1399;47.072;15.452;2022-12-16T19:19:58;8.90;58.60
2783;DHT22;1399;47.072;15.452;2022-12-16T19:22:42;8.90;58.60
2783;DHT22;1399;47.072;15.452;2022-12-16T19:25:29;8.90;58.50
2783;DHT22;1399;47.072;15.452;2022-12-16T19:28:14;8.90;58.50
2783;DHT22;1399;47.072;15.452;2022-12-16T19:30:59;8.90;58.50
2783;DHT22;1399;47.072;15.452;2022-12-16T19:33:43;8.90;58.50
2783;DHT22;1399;47.072;15.452;2022-12-16T19:36:28;8.90;58.50
2783;DHT22;1399;47.072;15.452;2022-12-16T19:39:12;8.90;58.50
2783;DHT22;1399;47.072;15.452;2022-12-16T19:41:57;8.80;58.40
2783;DHT22;1399;47.072;15.452;2022-12-16T19:44:41;8.80;58.40
2783;DHT22;1399;47.072;15.452;2022-12-16T19:47:25;8.80;58.50
2783;DHT22;1399;47.072;15.452;2022-12-16T19:50:09;8.80;58.50
2783;DHT22;1399;47.072;15.452;2022-12-16T19:52:53;8.80;58.50
2783;DHT22;1399;47.072;15.452;2022-12-16T19:55:38;8.80;58.40
2783;DHT22;1399;47.072;15.452;2022-12-16T19:58:22;8.80;58.40
2783;DHT22;1399;47.072;15.452;2022-12-16T20:01:07;8.80;58.40